Time;durP1;ratioP1;P1;durP2;ratioP2;P2;SDS_P1;SDS_P2;PMS_P1;PMS_P2;Temp;Humidity;BMP_temperature;BMP_pressure;BME280_temperature;BME280_humidity;BME280_pressure;Samples;Min_cycle;Max_cycle;Signal;HPM_P1;HPM_P2
2024/02/22 00:04:58;;;;;;;0.40;0.40;;;;;;;10.20;100.00;99719.56;10463985;28;20047;-73
2024/02/22 00:10:00;;;;;;;1.10;1.10;;;;;;;10.24;100.00;99734.28;10462227;28;20087;-73
2024/02/22 00:15:00;;;;;;;5.95;2.75;;;;;;;10.30;100.00;99741.53;10464888;28;20040;-75
2024/02/22 00:20:02;;;;;;;1.70;1.60;;;;;;;10.22;100.00;99722.88;10469764;28;20053;-73
2024/02/22 00:25:03;;;;;;;0.80;0.80;;;;;;;10.20;100.00;99719.56;10470395;28;20032;-72
2024/02/22 00:30:05;;;;;;;2.70;2.60;;;;;;;10.19;100.00;99720.63;10471279;28;20037;-71
2024/02/22 00:35:06;;;;;;;0.82;0.82;;;;;;;10.17;100.00;99710.00;10462116;28;20049;-69
2024/02/22 00:40:09;;;;;;;2.30;2.15;;;;;;;10.24;100.00;99712.66;10443334;28;20416;-72
2024/02/22 00:45:10;;;;;;;1.30;1.30;;;;;;;10.21;100.00;99708.53;10461163;28;20107;-72
2024/02/22 00:50:10;;;;;;;1.90;1.80;;;;;;;10.17;100.00;99703.78;10460786;28;20128;-72
2024/02/22 00:55:10;;;;;;;1.13;1.13;;;;;;;10.24;100.00;99699.97;10443711;28;20078;-73
2024/02/22 01:00:11;;;;;;;0.32;0.32;;;;;;;10.21;100.00;99694.16;10459675;28;20040;-71
2024/02/22 01:05:12;;;;;;;7.68;3.42;;;;;;;10.25;100.00;99687.28;10444126;28;20036;-72
2024/02/22 01:10:12;;;;;;;0.82;0.82;;;;;;;10.23;100.00;99676.66;10459772;28;20087;-71
2024/02/22 01:15:13;;;;;;;1.13;1.13;;;;;;;10.21;100.00;99677.94;10460406;28;20041;-71
2024/02/22 01:20:13;;;;;;;6.45;5.15;;;;;;;10.19;100.00;99663.81;10459542;28;20033;-73
2024/02/22 01:25:14;;;;;;;1.40;1.40;;;;;;;10.12;100.00;99660.38;10459470;28;20408;-73
2024/02/22 01:30:14;;;;;;;3.17;3.03;;;;;;;10.06;100.00;99653.16;10459152;28;20032;-72
2024/02/22 01:35:15;;;;;;;2.78;2.67;;;;;;;10.12;100.00;99641.44;10459766;28;20431;-74
2024/02/22 01:40:15;;;;;;;2.65;2.45;;;;;;;10.07;100.00;99638.56;10458329;28;20373;-73
2024/02/22 01:45:16;;;;;;;0.85;0.82;;;;;;;10.10;100.00;99633.53;10459519;28;20476;-71
2024/02/22 01:50:17;;;;;;;2.42;1.25;;;;;;;10.15;100.00;99635.56;10423498;28;20040;-71
2024/02/22 01:55:20;;;;;;;2.67;2.53;;;;;;;10.07;100.00;99628.56;10458763;28;20048;-73
2024/02/22 02:00:23;;;;;;;2.03;2.03;;;;;;;10.04;100.00;99614.66;10440187;28;20035;-73
2024/02/22 02:05:24;;;;;;;0.80;0.80;;;;;;;9.97;100.00;99617.44;10441209;28;20032;-74
2024/02/22 02:10:24;;;;;;;2.35;2.25;;;;;;;9.94;100.00;99607.09;10459266;28;20354;-72
2024/02/22 02:15:24;;;;;;;4.43;4.00;;;;;;;9.84;100.00;99598.69;10456240;28;20048;-72
2024/02/22 02:20:26;;;;;;;3.40;2.85;;;;;;;9.77;100.00;99601.44;10457251;28;20499;-71
2024/02/22 02:25:30;;;;;;;30.00;4.22;;;;;;;9.75;100.00;99593.53;10458043;28;20044;-72
2024/02/22 02:30:31;;;;;;;0.95;0.95;;;;;;;9.77;100.00;99596.03;10456873;28;20479;-72
2024/02/22 02:35:37;;;;;;;0.40;0.40;;;;;;;9.83;100.00;99597.84;10455735;28;20061;-73
2024/02/22 02:40:37;;;;;;;4.65;4.22;;;;;;;9.78;100.00;99590.41;10456269;28;20033;-72
2024/02/22 02:45:38;;;;;;;4.38;3.13;;;;;;;9.81;100.00;99593.72;10456171;28;20449;-71
2024/02/22 02:50:38;;;;;;;4.30;4.00;;;;;;;9.78;100.00;99576.88;10438270;28;20457;-71
2024/02/22 02:55:38;;;;;;;4.53;4.32;;;;;;;9.78;100.00;99568.78;10455341;28;20095;-71
2024/02/22 03:00:39;;;;;;;5.07;4.72;;;;;;;9.80;100.00;99563.16;10456692;28;20075;-72
2024/02/22 03:05:39;;;;;;;0.93;0.93;;;;;;;9.80;100.00;99567.75;10453735;28;20045;-71
2024/02/22 03:10:40;;;;;;;1.35;1.35;;;;;;;9.77;100.00;99553.59;10453441;28;20044;-73
2024/02/22 03:15:40;;;;;;;1.63;1.60;;;;;;;9.83;100.00;99541.06;10455143;28;20495;-72
2024/02/22 03:20:41;;;;;;;9.52;2.28;;;;;;;9.76;100.00;99540.31;10455488;28;20033;-72
2024/02/22 03:25:41;;;;;;;1.25;1.25;;;;;;;9.75;100.00;99528.66;10438581;28;20145;-70
2024/02/22 03:30:42;;;;;;;0.85;0.85;;;;;;;9.75;100.00;99519.72;10454636;28;20029;-72
2024/02/22 03:35:42;;;;;;;8.50;6.70;;;;;;;9.75;100.00;99512.44;10454235;28;20143;-72
2024/02/22 03:40:42;;;;;;;1.27;1.27;;;;;;;9.71;100.00;99511.25;10453842;28;20060;-72
2024/02/22 03:45:43;;;;;;;0.93;0.93;;;;;;;9.74;100.00;99512.69;10454130;28;20033;-73
2024/02/22 03:50:43;;;;;;;1.60;1.52;;;;;;;9.78;100.00;99492.25;10454554;28;20041;-72
2024/02/22 03:55:44;;;;;;;4.93;3.65;;;;;;;9.69;100.00;99499.00;10455036;28;20033;-71
2024/02/22 04:00:44;;;;;;;0.80;0.80;;;;;;;9.69;100.00;99490.91;10454473;28;20033;-74
2024/02/22 04:05:45;;;;;;;1.33;1.27;;;;;;;9.64;100.00;99479.97;10456146;28;20400;-70
2024/02/22 04:10:45;;;;;;;0.85;0.85;;;;;;;9.63;100.00;99483.69;10457688;28;20045;-71
2024/02/22 04:15:47;;;;;;;5.15;3.72;;;;;;;9.59;100.00;99474.41;10438939;28;20056;-71
2024/02/22 04:20:48;;;;;;;2.38;2.17;;;;;;;9.37;100.00;99461.34;10455892;28;20091;-72
2024/02/22 04:25:48;;;;;;;0.40;0.40;;;;;;;9.12;100.00;99463.25;10457852;28;20409;-71
2024/02/22 04:30:48;;;;;;;0.70;0.70;;;;;;;8.89;100.00;99448.53;10459797;28;20061;-72
2024/02/22 04:35:49;;;;;;;0.75;0.75;;;;;;;8.72;100.00;99459.06;10459674;28;20057;-71
2024/02/22 04:40:49;;;;;;;2.72;2.42;;;;;;;8.65;100.00;99454.75;10461304;28;20037;-70
2024/02/22 04:45:50;;;;;;;0.80;0.80;;;;;;;8.58;100.00;99455.66;10460353;28;20043;-72
2024/02/22 04:50:50;;;;;;;0.47;0.47;;;;;;;8.54;100.00;99438.25;10459873;28;20445;-71
2024/02/22 04:55:50;;;;;;;0.93;0.93;;;;;;;8.51;100.00;99422.50;10461240;28;20067;-71
2024/02/22 05:00:51;;;;;;;2.58;2.35;;;;;;;8.50;100.00;99411.94;10462168;28;20088;-72
2024/02/22 05:05:51;;;;;;;0.40;0.40;;;;;;;8.50;100.00;99410.06;10460153;28;20516;-72
2024/02/22 05:10:52;;;;;;;1.50;1.50;;;;;;;8.66;100.00;99403.28;10460311;28;20086;-71
2024/02/22 05:15:52;;;;;;;0.40;0.40;;;;;;;8.84;100.00;99392.53;10458890;28;20505;-73
2024/02/22 05:20:53;;;;;;;41.40;3.50;;;;;;;8.91;100.00;99400.56;10458143;28;20098;-72
2024/02/22 05:25:53;;;;;;;0.85;0.82;;;;;;;8.96;100.00;99405.25;10459355;28;20037;-72
2024/02/22 05:30:53;;;;;;;8.20;5.68;;;;;;;8.97;100.00;99391.56;10459381;28;20037;-70
2024/02/22 05:35:54;;;;;;;0.30;0.30;;;;;;;8.98;100.00;99377.00;10458046;28;20060;-71
2024/02/22 05:40:54;;;;;;;1.77;1.67;;;;;;;8.99;100.00;99367.03;10458845;28;20057;-72
2024/02/22 05:45:55;;;;;;;4.05;3.67;;;;;;;9.08;100.00;99373.78;10457497;28;20032;-73
2024/02/22 05:50:55;;;;;;;0.50;0.50;;;;;;;9.15;100.00;99355.63;10457890;28;20546;-71
2024/02/22 05:55:56;;;;;;;6.07;1.67;;;;;;;9.17;100.00;99340.03;10458473;28;20048;-71
2024/02/22 06:00:56;;;;;;;0.57;0.57;;;;;;;9.06;100.00;99328.09;10456591;28;20029;-72
2024/02/22 06:05:56;;;;;;;0.60;0.60;;;;;;;9.10;100.00;99324.97;10455768;28;20059;-71
2024/02/22 06:10:57;;;;;;;1.80;1.67;;;;;;;9.19;100.00;99321.72;10455888;28;20150;-71
2024/02/22 06:15:57;;;;;;;2.20;0.98;;;;;;;9.19;100.00;99320.88;10455740;28;20041;-71
2024/02/22 06:20:58;;;;;;;2.05;1.95;;;;;;;9.26;100.00;99302.72;10456669;28;20041;-70
2024/02/22 06:25:58;;;;;;;3.10;2.90;;;;;;;9.27;100.00;99290.84;10457128;28;20040;-72
2024/02/22 06:30:59;;;;;;;0.40;0.40;;;;;;;9.24;100.00;99285.91;10457111;28;20053;-71
2024/02/22 06:35:59;;;;;;;12.82;6.82;;;;;;;9.26;100.00;99265.72;10462710;28;20053;-72
2024/02/22 06:41:00;;;;;;;0.88;0.88;;;;;;;9.31;100.00;99257.75;10454923;28;20049;-71
2024/02/22 06:46:00;;;;;;;0.50;0.50;;;;;;;9.31;100.00;99230.72;10455071;28;20492;-70
2024/02/22 06:51:00;;;;;;;4.25;2.58;;;;;;;9.37;100.00;99218.19;10455623;28;20115;-73
2024/02/22 06:56:01;;;;;;;5.68;1.55;;;;;;;9.40;100.00;99225.84;10455858;28;20036;-72
2024/02/22 07:01:01;;;;;;;0.40;0.40;;;;;;;9.35;100.00;99227.56;10453991;28;20029;-70
2024/02/22 07:06:02;;;;;;;22.33;10.23;;;;;;;9.38;100.00;99217.16;10454812;28;20037;-71
2024/02/22 07:11:04;;;;;;;19.88;10.20;;;;;;;9.43;100.00;99209.16;10454914;28;20552;-72
2024/02/22 07:16:06;;;;;;;17.02;10.43;;;;;;;9.46;100.00;99191.66;10454785;28;20410;-72
2024/02/22 07:21:07;;;;;;;26.63;12.52;;;;;;;9.41;100.00;99178.88;10437881;28;20033;-71
2024/02/22 07:26:10;;;;;;;28.83;10.93;;;;;;;9.42;100.00;99180.50;10454428;28;20041;-73
2024/02/22 07:31:11;;;;;;;23.95;8.43;;;;;;;9.47;100.00;99175.22;10455900;28;20372;-72
2024/02/22 07:36:11;;;;;;;11.40;8.63;;;;;;;9.40;100.00;99149.38;10452994;28;20057;-72
2024/02/22 07:41:15;;;;;;;24.73;9.40;;;;;;;9.54;100.00;99148.94;10453463;28;20380;-70
2024/02/22 07:46:16;;;;;;;23.67;8.38;;;;;;;9.55;100.00;99131.66;10452939;28;20031;-72
2024/02/22 07:51:17;;;;;;;13.75;7.90;;;;;;;9.70;100.00;99144.72;10453153;28;20120;-70
2024/02/22 07:56:17;;;;;;;16.13;9.32;;;;;;;9.60;100.00;99120.13;10452968;28;20483;-71
2024/02/22 08:01:17;;;;;;;19.27;7.50;;;;;;;9.68;100.00;99111.69;10453885;28;20040;-70
2024/02/22 08:06:18;;;;;;;14.38;7.90;;;;;;;9.75;100.00;99089.94;10452374;28;20032;-71
2024/02/22 08:11:20;;;;;;;25.08;9.18;;;;;;;9.79;100.00;99091.09;10454883;28;20041;-72
2024/02/22 08:16:21;;;;;;;18.08;9.57;;;;;;;9.89;100.00;99056.19;10461228;28;20094;-73
2024/02/22 08:21:21;;;;;;;9.73;8.50;;;;;;;9.80;100.00;99035.16;10459878;28;20472;-71
2024/02/22 08:26:22;;;;;;;13.38;9.57;;;;;;;9.79;100.00;99037.03;10460747;28;20044;-70
2024/02/22 08:31:24;;;;;;;12.45;7.63;;;;;;;9.79;100.00;99028.91;10460616;28;20112;-72
2024/02/22 08:36:24;;;;;;;13.65;7.75;;;;;;;9.86;100.00;99016.13;10459250;28;20177;-71
2024/02/22 08:41:26;;;;;;;12.80;5.25;;;;;;;9.85;100.00;98998.22;10459802;28;20481;-71
2024/02/22 08:46:28;;;;;;;9.95;5.75;;;;;;;9.83;100.00;98989.56;10442854;28;20067;-71
2024/02/22 08:51:28;;;;;;;14.25;6.20;;;;;;;9.96;100.00;98999.28;10444202;28;20048;-71
2024/02/22 08:56:29;;;;;;;13.00;5.32;;;;;;;9.99;100.00;98982.56;10460939;28;20452;-73
2024/02/22 09:01:32;;;;;;;6.57;4.38;;;;;;;10.12;100.00;98957.13;10460592;28;20484;-69
2024/02/22 09:06:32;;;;;;;16.02;7.03;;;;;;;10.64;100.00;98932.63;10459330;28;20538;-71
2024/02/22 09:11:33;;;;;;;9.50;5.43;;;;;;;11.41;100.00;98929.94;10459241;28;20040;-70
2024/02/22 09:16:33;;;;;;;5.85;3.70;;;;;;;11.62;100.00;98919.38;10459083;28;20029;-70
2024/02/22 09:21:34;;;;;;;5.97;4.32;;;;;;;12.63;100.00;98904.38;10441253;28;20040;-71
2024/02/22 09:26:35;;;;;;;10.63;4.13;;;;;;;13.16;100.00;98891.69;10458881;28;20044;-70
2024/02/22 09:31:36;;;;;;;4.43;4.03;;;;;;;13.35;100.00;98876.59;10458897;28;20040;-72
2024/02/22 09:36:36;;;;;;;6.75;3.90;;;;;;;12.44;100.00;98850.47;10457483;28;20053;-71
2024/02/22 09:41:36;;;;;;;10.20;6.03;;;;;;;13.36;100.00;98823.03;10458341;28;20040;-70
2024/02/22 09:46:37;;;;;;;5.22;3.67;;;;;;;13.12;100.00;98809.06;10456632;28;20422;-70
2024/02/22 09:51:37;;;;;;;6.38;4.28;;;;;;;11.99;100.00;98813.75;10439866;28;20086;-70
2024/02/22 09:56:38;;;;;;;7.47;4.75;;;;;;;11.61;100.00;98807.41;10456693;28;20111;-72
2024/02/22 10:01:39;;;;;;;7.47;5.32;;;;;;;11.47;100.00;98800.75;10457851;28;20083;-70
2024/02/22 10:06:40;;;;;;;6.75;4.45;;;;;;;11.40;100.00;98784.69;10457337;28;20033;-71
2024/02/22 10:11:46;;;;;;;4.35;3.90;;;;;;;11.22;100.00;98752.50;10458398;28;20044;-70
2024/02/22 10:16:47;;;;;;;5.28;4.82;;;;;;;11.13;100.00;98741.28;10455975;28;20060;-70
2024/02/22 10:21:53;;;;;;;6.82;6.10;;;;;;;11.03;100.00;98726.81;10455472;28;20511;-71
2024/02/22 10:27:04;;;;;;;10.80;6.30;;;;;;;11.30;100.00;98711.41;10457368;28;20090;-70
2024/02/22 10:32:04;;;;;;;6.65;6.05;;;;;;;11.23;100.00;98694.56;10439547;28;20041;-71
2024/02/22 10:37:05;;;;;;;8.65;6.55;;;;;;;11.12;100.00;98693.63;10457015;28;20469;-72
2024/02/22 10:42:05;;;;;;;8.07;6.18;;;;;;;11.11;100.00;98683.88;10439626;28;20079;-69
2024/02/22 10:47:05;;;;;;;4.65;4.00;;;;;;;11.24;100.00;98674.50;10455545;28;20040;-70
2024/02/22 10:52:07;;;;;;;6.05;4.78;;;;;;;11.38;100.00;98650.50;10454808;28;20029;-72
2024/02/22 10:57:08;;;;;;;4.70;4.25;;;;;;;11.47;100.00;98648.97;10421701;28;20029;-71
2024/02/22 11:02:08;;;;;;;4.40;4.00;;;;;;;11.43;100.00;98622.66;10437600;28;20025;-71
2024/02/22 11:07:09;;;;;;;4.55;3.63;;;;;;;11.47;100.00;98602.06;10456418;28;20056;-70
2024/02/22 11:12:13;;;;;;;4.10;3.80;;;;;;;11.51;100.00;98585.03;10436898;28;20041;-70
2024/02/22 11:17:17;;;;;;;3.60;3.38;;;;;;;11.66;100.00;98551.78;10453271;28;20085;-69
2024/02/22 11:22:18;;;;;;;3.75;3.53;;;;;;;11.66;100.00;98540.94;10437809;28;20112;-71
2024/02/22 11:27:18;;;;;;;4.20;3.50;;;;;;;11.68;100.00;98514.41;10453797;28;20461;-70
2024/02/22 11:32:19;;;;;;;4.40;3.90;;;;;;;11.57;100.00;98501.84;10437359;28;20094;-70
2024/02/22 11:37:22;;;;;;;3.38;3.08;;;;;;;11.44;100.00;98480.66;10453748;28;20110;-69
2024/02/22 11:42:23;;;;;;;2.83;2.63;;;;;;;11.43;100.00;98462.75;10454349;28;20041;-69
2024/02/22 11:47:23;;;;;;;6.95;3.63;;;;;;;11.41;100.00;98449.47;10459088;28;20033;-71
2024/02/22 11:52:25;;;;;;;5.32;3.75;;;;;;;11.39;100.00;98419.94;10462047;28;20059;-71
2024/02/22 11:57:25;;;;;;;3.90;3.50;;;;;;;11.55;100.00;98406.44;10444474;28;20094;-70
2024/02/22 12:02:26;;;;;;;4.60;4.30;;;;;;;11.66;100.00;98372.88;10462148;28;20064;-70
2024/02/22 12:07:28;;;;;;;14.43;6.03;;;;;;;11.67;100.00;98357.41;10461694;28;20451;-70
2024/02/22 12:12:31;;;;;;;5.32;4.90;;;;;;;11.64;100.00;98331.66;10460861;28;20029;-72
2024/02/22 12:17:32;;;;;;;5.97;5.38;;;;;;;11.62;100.00;98287.75;10460528;28;20158;-71
2024/02/22 12:22:33;;;;;;;7.30;6.07;;;;;;;11.55;100.00;98268.19;10459795;28;20036;-72
2024/02/22 12:27:34;;;;;;;6.78;5.97;;;;;;;11.74;100.00;98244.09;10460211;28;20472;-71
2024/02/22 12:32:34;;;;;;;7.60;6.82;;;;;;;11.78;100.00;98220.81;10460877;28;20041;-71
2024/02/22 12:37:35;;;;;;;7.25;5.85;;;;;;;11.79;100.00;98206.16;10459963;28;20064;-70
2024/02/22 12:42:35;;;;;;;11.90;6.55;;;;;;;11.78;100.00;98196.41;10460425;28;20469;-71
2024/02/22 12:47:35;;;;;;;6.45;5.55;;;;;;;11.86;100.00;98171.47;10461061;28;20051;-71
2024/02/22 12:52:36;;;;;;;9.80;6.35;;;;;;;11.92;100.00;98150.59;10442533;28;20036;-70
2024/02/22 12:57:36;;;;;;;10.38;6.40;;;;;;;12.12;100.00;98125.31;10458503;28;20044;-70
2024/02/22 13:02:37;;;;;;;7.53;6.82;;;;;;;12.36;100.00;98114.69;10459839;28;20035;-70
2024/02/22 13:07:37;;;;;;;5.40;4.93;;;;;;;12.54;100.00;98089.63;10459304;28;20036;-70
2024/02/22 13:12:38;;;;;;;4.63;4.18;;;;;;;12.48;100.00;98067.13;10458222;28;20432;-71
2024/02/22 13:17:38;;;;;;;4.40;4.00;;;;;;;12.40;100.00;98048.69;10425215;28;20531;-70
2024/02/22 13:22:39;;;;;;;3.25;3.03;;;;;;;12.31;100.00;98025.94;10458551;28;20021;-70
2024/02/22 13:27:39;;;;;;;4.53;4.22;;;;;;;12.31;100.00;97996.91;10458925;28;20067;-72
2024/02/22 13:32:41;;;;;;;7.32;5.97;;;;;;;12.07;100.00;97991.34;10458634;28;20087;-69
2024/02/22 13:37:41;;;;;;;7.13;6.53;;;;;;;12.10;100.00;97965.56;10458644;28;20053;-69
2024/02/22 13:42:41;;;;;;;9.13;7.47;;;;;;;12.07;100.00;97939.00;10457854;28;20037;-70
2024/02/22 13:47:42;;;;;;;8.45;7.50;;;;;;;12.00;100.00;97905.97;10458022;28;20449;-71
2024/02/22 13:52:44;;;;;;;8.90;8.07;;;;;;;11.95;100.00;97876.16;10456445;28;20033;-72
2024/02/22 13:57:44;;;;;;;11.00;9.90;;;;;;;11.86;100.00;97852.31;10456305;28;20025;-69
2024/02/22 14:02:44;;;;;;;9.40;8.55;;;;;;;11.93;100.00;97833.03;10457825;28;20479;-70
2024/02/22 14:07:51;;;;;;;10.00;9.20;;;;;;;12.00;100.00;97819.19;10454224;28;20033;-70
2024/02/22 14:12:53;;;;;;;8.88;8.07;;;;;;;11.93;100.00;97795.06;10457339;28;20033;-70
2024/02/22 14:17:54;;;;;;;7.75;7.15;;;;;;;11.99;100.00;97779.56;10422871;28;20484;-70
2024/02/22 14:22:54;;;;;;;1.00;1.00;;;;;;;11.97;100.00;97751.94;10456097;28;20056;-69
2024/02/22 14:27:55;;;;;;;0.43;0.43;;;;;;;11.98;100.00;97729.97;10455818;28;20090;-68
2024/02/22 14:32:55;;;;;;;0.40;0.40;;;;;;;12.04;100.00;97701.69;10456070;28;20036;-72
2024/02/22 14:37:55;;;;;;;0.70;0.70;;;;;;;12.13;100.00;97666.63;10437671;28;20064;-70
2024/02/22 14:42:56;;;;;;;1.20;1.20;;;;;;;12.11;100.00;97663.41;10455784;28;20122;-69
2024/02/22 14:47:57;;;;;;;0.73;0.73;;;;;;;12.07;100.00;97637.94;10456667;28;20037;-71
2024/02/22 14:52:58;;;;;;;0.50;0.50;;;;;;;12.06;100.00;97625.47;10441512;28;20040;-70
2024/02/22 14:57:58;;;;;;;0.60;0.60;;;;;;;12.05;100.00;97599.44;10458333;28;20037;-70
2024/02/22 15:02:59;;;;;;;0.50;0.50;;;;;;;12.03;100.00;97582.69;10455247;28;20045;-70
2024/02/22 15:07:59;;;;;;;0.65;0.65;;;;;;;12.08;100.00;97561.72;10457579;28;20350;-69
2024/02/22 15:13:00;;;;;;;0.50;0.50;;;;;;;12.09;100.00;97535.38;10458477;28;20452;-70
2024/02/22 15:18:00;;;;;;;0.65;0.65;;;;;;;12.11;100.00;97538.63;10459032;28;20040;-68
2024/02/22 15:23:01;;;;;;;0.70;0.70;;;;;;;12.04;100.00;97511.06;10455551;28;20408;-70
2024/02/22 15:28:01;;;;;;;0.40;0.40;;;;;;;12.00;100.00;97510.84;10455491;28;20040;-69
2024/02/22 15:33:02;;;;;;;0.60;0.60;;;;;;;12.08;100.00;97485.78;10455912;28;20473;-70
2024/02/22 15:38:02;;;;;;;0.47;0.47;;;;;;;12.01;100.00;97435.72;10455285;28;20077;-71
2024/02/22 15:43:03;;;;;;;0.60;0.60;;;;;;;12.08;100.00;97414.47;10454329;28;20076;-71
2024/02/22 15:48:04;;;;;;;0.50;0.50;;;;;;;12.09;100.00;97400.63;10455165;28;20044;-70
2024/02/22 15:53:05;;;;;;;0.60;0.60;;;;;;;12.16;100.00;97392.13;10452476;28;20048;-71
2024/02/22 15:58:06;;;;;;;1.15;1.15;;;;;;;12.21;100.00;97375.75;10452310;28;20370;-69
2024/02/22 16:03:07;;;;;;;0.50;0.50;;;;;;;12.25;100.00;97359.69;10454297;28;20509;-69
2024/02/22 16:08:07;;;;;;;0.52;0.52;;;;;;;12.30;100.00;97346.06;10452900;28;20029;-70
2024/02/22 16:13:08;;;;;;;0.60;0.60;;;;;;;12.39;100.00;97329.91;10453631;28;20033;-69
2024/02/22 16:18:09;;;;;;;0.70;0.70;;;;;;;12.52;100.00;97299.28;10453956;28;20033;-69
2024/02/22 16:23:11;;;;;;;0.50;0.50;;;;;;;12.59;100.00;97283.41;10451728;28;20518;-72
2024/02/22 16:28:14;;;;;;;2.35;2.25;;;;;;;12.61;100.00;97285.84;10453313;28;20064;-71
2024/02/22 16:33:15;;;;;;;2.53;2.33;;;;;;;12.50;100.00;97272.44;10457547;28;20404;-70
2024/02/22 16:38:17;;;;;;;2.42;2.22;;;;;;;12.28;100.00;97239.72;10461559;28;20045;-70
2024/02/22 16:43:17;;;;;;;1.67;1.65;;;;;;;12.09;100.00;97226.22;10460804;28;20037;-70
2024/02/22 16:48:18;;;;;;;1.05;1.05;;;;;;;11.78;100.00;97221.28;10458877;28;20420;-70
2024/02/22 16:53:18;;;;;;;0.50;0.50;;;;;;;11.53;100.00;97181.84;10460595;28;20040;-71
2024/02/22 16:58:18;;;;;;;0.70;0.70;;;;;;;11.43;100.00;97178.50;10459660;28;20116;-72
2024/02/22 17:03:19;;;;;;;0.88;0.88;;;;;;;10.43;100.00;97314.50;10460513;28;20032;-73
2024/02/22 17:08:19;;;;;;;1.40;1.27;;;;;;;9.57;100.00;97309.66;10459453;28;20306;-74
2024/02/22 17:13:20;;;;;;;4.68;1.58;;;;;;;9.25;100.00;97309.03;10458912;28;20041;-72
2024/02/22 17:18:21;;;;;;;9.65;3.10;;;;;;;9.14;100.00;97318.25;10457607;28;20471;-75
2024/02/22 17:23:21;;;;;;;10.23;2.67;;;;;;;9.10;100.00;97333.38;10458888;28;20091;-74
2024/02/22 17:28:22;;;;;;;9.05;3.33;;;;;;;9.08;100.00;97374.13;10459138;28;20126;-74
2024/02/22 17:33:24;;;;;;;11.25;3.13;;;;;;;9.04;100.00;97375.78;10458916;28;20037;-74
2024/02/22 17:38:25;;;;;;;12.20;3.80;;;;;;;8.87;100.00;97387.94;10457671;28;20048;-75
2024/02/22 17:43:26;;;;;;;17.00;5.15;;;;;;;8.84;100.00;97394.72;10463425;28;20373;-75
2024/02/22 17:48:26;;;;;;;24.58;3.72;;;;;;;8.85;100.00;97431.41;10460013;28;20040;-75
2024/02/22 17:53:28;;;;;;;15.30;3.88;;;;;;;8.83;100.00;97422.75;10457932;28;20400;-74
2024/02/22 17:58:30;;;;;;;20.77;3.85;;;;;;;8.76;100.00;97403.34;10457404;28;20479;-74
2024/02/22 18:03:31;;;;;;;13.82;3.33;;;;;;;8.84;100.00;97416.28;10456841;28;20041;-75
2024/02/22 18:08:31;;;;;;;14.02;4.88;;;;;;;8.74;100.00;97419.81;10457640;28;20421;-73
2024/02/22 18:13:32;;;;;;;15.20;4.55;;;;;;;8.79;100.00;97402.81;10440082;28;20472;-75
2024/02/22 18:18:34;;;;;;;6.30;3.17;;;;;;;8.70;100.00;97409.81;10457254;28;20127;-73
2024/02/22 18:23:41;;;;;;;0.50;0.50;;;;;;;8.68;100.00;97428.16;10455955;28;20033;-74
2024/02/22 18:28:43;;;;;;;0.65;0.65;;;;;;;8.40;100.00;97422.22;10456921;28;20423;-72
2024/02/22 18:33:43;;;;;;;0.40;0.40;;;;;;;8.38;100.00;97435.97;10456039;28;20118;-72
2024/02/22 18:38:44;;;;;;;0.40;0.40;;;;;;;8.26;100.00;97438.06;10438613;28;20049;-73
2024/02/22 18:43:44;;;;;;;0.43;0.43;;;;;;;8.15;100.00;97453.44;10455713;28;20044;-74
2024/02/22 18:48:45;;;;;;;0.45;0.45;;;;;;;8.14;100.00;97459.91;10455257;28;20040;-72
2024/02/22 18:53:45;;;;;;;0.20;0.20;;;;;;;8.18;100.00;97473.66;10455507;28;20033;-73
2024/02/22 18:58:46;;;;;;;0.50;0.50;;;;;;;7.79;100.00;97481.34;10455281;28;20040;-72
2024/02/22 19:03:47;;;;;;;0.40;0.40;;;;;;;7.41;100.00;97507.53;10455621;28;20056;-74
2024/02/22 19:08:48;;;;;;;0.32;0.32;;;;;;;7.17;100.00;97507.09;10455422;28;20397;-72
2024/02/22 19:13:48;;;;;;;0.60;0.60;;;;;;;7.14;100.00;97556.84;10453842;28;20219;-73
2024/02/22 19:18:48;;;;;;;0.40;0.40;;;;;;;6.75;100.00;97618.91;10454971;28;20037;-73
2024/02/22 19:23:49;;;;;;;2.97;1.02;;;;;;;6.39;100.00;97638.41;10454612;28;20056;-73
2024/02/22 19:28:49;;;;;;;2.88;1.13;;;;;;;6.38;100.00;97663.66;10455712;28;20048;-71
2024/02/22 19:33:50;;;;;;;0.40;0.40;;;;;;;6.25;100.00;97697.91;10437130;28;20032;-72
2024/02/22 19:38:51;;;;;;;0.40;0.40;;;;;;;6.05;100.00;97711.03;10465087;28;20166;-73
2024/02/22 19:43:52;;;;;;;0.95;0.95;;;;;;;6.02;100.00;97739.19;10462254;28;20108;-73
2024/02/22 19:48:53;;;;;;;1.45;1.45;;;;;;;5.94;100.00;97766.50;10455561;28;20531;-72
2024/02/22 19:53:54;;;;;;;1.50;1.48;;;;;;;5.91;100.00;97787.63;10454481;28;20083;-74
2024/02/22 19:58:59;;;;;;;0.50;0.50;;;;;;;5.72;100.00;97797.78;10458962;28;20112;-73
2024/02/22 20:03:59;;;;;;;0.95;0.95;;;;;;;5.60;100.00;97797.81;10455768;28;20040;-73
2024/02/22 20:08:59;;;;;;;0.40;0.40;;;;;;;5.67;100.00;97822.66;10425799;28;20547;-75
2024/02/22 20:14:00;;;;;;;0.40;0.40;;;;;;;5.64;100.00;97825.00;10461885;28;20041;-74
2024/02/22 20:19:01;;;;;;;1.75;1.65;;;;;;;5.64;100.00;97841.09;10444030;28;20037;-74
2024/02/22 20:24:01;;;;;;;0.50;0.50;;;;;;;5.66;100.00;97863.97;10461280;28;20123;-72
2024/02/22 20:29:06;;;;;;;0.60;0.60;;;;;;;5.62;100.00;97881.63;10443715;28;20151;-72
2024/02/22 20:34:06;;;;;;;1.52;1.52;;;;;;;5.58;100.00;97913.50;10462280;28;20501;-74
2024/02/22 20:39:08;;;;;;;0.60;0.60;;;;;;;5.55;100.00;97931.94;10462043;28;20076;-74
2024/02/22 20:44:08;;;;;;;0.40;0.40;;;;;;;5.53;100.00;97950.97;10460821;28;20056;-73
2024/02/22 20:49:12;;;;;;;0.32;0.32;;;;;;;5.48;100.00;97980.38;10460228;28;20104;-74
2024/02/22 20:54:12;;;;;;;0.32;0.32;;;;;;;5.43;100.00;97992.88;10459139;28;20116;-74
2024/02/22 20:59:13;;;;;;;0.40;0.40;;;;;;;5.20;100.00;98026.75;10464391;28;20072;-73
2024/02/22 21:04:15;;;;;;;0.45;0.45;;;;;;;5.18;100.00;98055.66;10459464;28;20544;-72
2024/02/22 21:09:15;;;;;;;0.70;0.70;;;;;;;5.09;100.00;98068.59;10444998;28;20033;-72
2024/02/22 21:14:15;;;;;;;0.50;0.50;;;;;;;4.90;100.00;98100.03;10460254;28;20037;-73
2024/02/22 21:19:16;;;;;;;0.50;0.50;;;;;;;4.74;100.00;98099.88;10458495;28;20033;-72
2024/02/22 21:24:17;;;;;;;0.50;0.50;;;;;;;4.75;100.00;98128.31;10458207;28;20041;-71
2024/02/22 21:29:17;;;;;;;0.40;0.40;;;;;;;4.64;100.00;98156.72;10460152;28;20095;-74
2024/02/22 21:34:18;;;;;;;0.50;0.50;;;;;;;4.61;100.00;98192.00;10441408;28;20065;-72
2024/02/22 21:39:18;;;;;;;0.50;0.50;;;;;;;4.59;100.00;98223.56;10457519;28;20053;-76
2024/02/22 21:44:19;;;;;;;0.40;0.40;;;;;;;4.56;100.00;98245.47;10458510;28;20486;-75
2024/02/22 21:49:20;;;;;;;0.50;0.50;;;;;;;4.49;100.00;98263.47;10458841;28;20033;-75
2024/02/22 21:54:21;;;;;;;1.08;1.08;;;;;;;4.55;100.00;98286.72;10458102;28;20033;-74
2024/02/22 21:59:22;;;;;;;0.50;0.50;;;;;;;4.38;100.00;98321.31;10457311;28;20120;-75
2024/02/22 22:04:22;;;;;;;0.50;0.50;;;;;;;4.23;100.00;98324.31;10440134;28;20076;-74
2024/02/22 22:09:22;;;;;;;0.40;0.40;;;;;;;4.26;100.00;98331.09;10459517;28;20029;-73
2024/02/22 22:14:23;;;;;;;0.50;0.50;;;;;;;4.31;100.00;98331.28;10461779;28;20060;-76
2024/02/22 22:19:23;;;;;;;0.35;0.35;;;;;;;4.37;100.00;98325.00;10456047;28;20055;-72
2024/02/22 22:24:25;;;;;;;0.57;0.57;;;;;;;4.36;100.00;98356.34;10456266;28;20053;-72
2024/02/22 22:29:25;;;;;;;1.95;1.95;;;;;;;4.38;100.00;98367.66;10454791;28;20083;-72
2024/02/22 22:34:26;;;;;;;0.52;0.52;;;;;;;4.43;100.00;98385.75;10454943;28;20065;-73
2024/02/22 22:39:26;;;;;;;0.50;0.50;;;;;;;4.33;100.00;98388.94;10457670;28;20056;-71
2024/02/22 22:44:28;;;;;;;0.30;0.30;;;;;;;4.29;100.00;98406.50;10455707;28;20041;-73
2024/02/22 22:49:29;;;;;;;0.60;0.60;;;;;;;4.53;100.00;98423.63;10454834;28;20032;-72
2024/02/22 22:54:29;;;;;;;0.70;0.70;;;;;;;4.79;100.00;98432.47;10455069;28;20138;-74
2024/02/22 22:59:30;;;;;;;0.50;0.50;;;;;;;4.77;100.00;98430.00;10437668;28;20136;-75
2024/02/22 23:04:30;;;;;;;0.82;0.77;;;;;;;4.96;100.00;98460.34;10437890;28;20036;-73
2024/02/22 23:09:31;;;;;;;0.60;0.60;;;;;;;5.05;100.00;98450.16;10437743;28;20128;-73